Time;durP1;ratioP1;P1;durP2;ratioP2;P2;SDS_P1;SDS_P2;PMS_P1;PMS_P2;Temp;Humidity;BMP_temperature;BMP_pressure;BME280_temperature;BME280_humidity;BME280_pressure;Samples;Min_cycle;Max_cycle;Signal;HPM_P1;HPM_P2
2022/03/03 00:01:38;;;;;;;41.03;19.90;;;-1.20;99.90;;;;;;4975080;28;20268;-68
2022/03/03 00:04:04;;;;;;;43.73;19.83;;;-1.20;99.90;;;;;;4975337;28;20186;-61
2022/03/03 00:06:30;;;;;;;38.67;18.97;;;-1.20;99.90;;;;;;4975218;28;20235;-61
2022/03/03 00:08:56;;;;;;;44.17;19.43;;;-1.20;99.90;;;;;;4974812;28;20541;-61
2022/03/03 00:11:22;;;;;;;40.20;19.20;;;-1.10;99.90;;;;;;4975113;28;20704;-61
2022/03/03 00:13:48;;;;;;;39.80;20.33;;;-1.20;99.90;;;;;;4974792;28;20182;-61
2022/03/03 00:16:13;;;;;;;45.17;21.10;;;-1.10;99.90;;;;;;4975099;28;20329;-62
2022/03/03 00:18:39;;;;;;;37.40;17.87;;;-1.20;99.90;;;;;;4989769;28;20225;-61
2022/03/03 00:21:05;;;;;;;44.70;22.03;;;-1.20;99.90;;;;;;4993575;28;20192;-61
2022/03/03 00:23:32;;;;;;;43.07;19.47;;;-1.20;99.90;;;;;;4994588;28;20691;-61
2022/03/03 00:25:58;;;;;;;39.70;15.57;;;-1.20;99.90;;;;;;4993644;28;20251;-61
2022/03/03 00:28:24;;;;;;;39.23;18.63;;;-1.20;99.90;;;;;;4994094;28;20207;-62
2022/03/03 00:30:50;;;;;;;45.67;23.23;;;-1.10;99.90;;;;;;4993605;28;20239;-61
2022/03/03 00:33:15;;;;;;;37.93;17.90;;;-1.10;99.90;;;;;;4994087;28;20176;-61
2022/03/03 00:35:41;;;;;;;46.83;20.17;;;-1.10;99.90;;;;;;4993596;28;20223;-61
2022/03/03 00:38:09;;;;;;;39.57;17.93;;;-1.10;99.90;;;;;;4993976;28;20222;-61
2022/03/03 00:40:35;;;;;;;41.17;18.57;;;-1.10;99.90;;;;;;4993618;28;20230;-62
2022/03/03 00:43:01;;;;;;;38.63;15.57;;;-1.10;99.90;;;;;;4993752;28;20216;-61
2022/03/03 00:45:27;;;;;;;40.03;16.73;;;-1.10;99.90;;;;;;4993926;28;20218;-61
2022/03/03 00:47:53;;;;;;;41.13;18.93;;;-1.10;99.90;;;;;;4993548;28;20191;-61
2022/03/03 00:50:18;;;;;;;42.27;18.20;;;-1.10;99.90;;;;;;4993689;28;20191;-61
2022/03/03 00:52:44;;;;;;;40.73;19.33;;;-1.10;99.90;;;;;;4993812;28;20309;-61
2022/03/03 00:55:10;;;;;;;38.47;17.77;;;-1.10;99.90;;;;;;4993547;28;20258;-64
2022/03/03 00:57:36;;;;;;;54.90;21.13;;;-1.10;99.90;;;;;;4993604;28;20187;-61
2022/03/03 01:00:05;;;;;;;32.07;14.73;;;-1.10;99.90;;;;;;4993081;28;20258;-62
2022/03/03 01:02:31;;;;;;;40.47;17.23;;;-1.00;99.90;;;;;;4993913;28;20577;-61
2022/03/03 01:04:57;;;;;;;27.63;13.37;;;-1.10;99.90;;;;;;4993303;28;20296;-61
2022/03/03 01:07:23;;;;;;;35.53;16.83;;;-1.00;99.90;;;;;;4993295;28;20231;-62
2022/03/03 01:09:48;;;;;;;32.07;15.70;;;-1.00;99.90;;;;;;4993009;28;20560;-62
2022/03/03 01:12:14;;;;;;;33.13;15.60;;;-1.00;99.90;;;;;;4993358;28;20188;-60
2022/03/03 01:14:40;;;;;;;40.77;19.83;;;-1.00;99.90;;;;;;4993324;28;20287;-61
2022/03/03 01:17:06;;;;;;;34.20;15.10;;;-1.00;99.90;;;;;;4989319;28;20184;-64
2022/03/03 01:19:31;;;;;;;32.70;16.07;;;-1.00;99.90;;;;;;4972594;28;20184;-62
2022/03/03 01:21:57;;;;;;;21.40;9.80;;;-0.90;99.90;;;;;;4973353;28;20264;-66
2022/03/03 01:24:23;;;;;;;33.10;15.20;;;-0.90;99.90;;;;;;4972830;28;20185;-62
2022/03/03 01:26:49;;;;;;;33.30;16.07;;;-0.90;99.90;;;;;;4973252;28;20713;-61
2022/03/03 01:29:15;;;;;;;29.00;12.80;;;-0.90;99.90;;;;;;4974010;28;20204;-61
2022/03/03 01:31:40;;;;;;;33.73;14.73;;;-0.90;99.90;;;;;;4971978;28;20634;-61
2022/03/03 01:34:06;;;;;;;31.00;14.33;;;-0.90;99.90;;;;;;4973379;28;20188;-61
2022/03/03 01:36:33;;;;;;;40.23;16.83;;;-0.90;99.90;;;;;;4973383;28;20298;-62
2022/03/03 01:38:59;;;;;;;36.03;17.73;;;-1.00;99.90;;;;;;4973080;28;20537;-61
2022/03/03 01:41:25;;;;;;;30.00;14.37;;;-1.00;99.90;;;;;;4973075;28;20189;-61
2022/03/03 01:43:51;;;;;;;33.13;15.10;;;-0.90;99.90;;;;;;4971933;28;20719;-61
2022/03/03 01:46:17;;;;;;;34.87;16.93;;;-0.90;99.90;;;;;;4973226;28;20200;-63
2022/03/03 01:48:44;;;;;;;31.37;14.70;;;-0.90;99.90;;;;;;4973289;28;20185;-70
2022/03/03 01:51:10;;;;;;;33.37;15.70;;;-0.90;99.90;;;;;;4972262;28;20645;-60
2022/03/03 01:53:36;;;;;;;34.40;17.43;;;-0.90;99.90;;;;;;4973023;28;20560;-60
2022/03/03 01:56:03;;;;;;;34.60;16.63;;;-0.90;99.90;;;;;;4972988;28;20279;-64
2022/03/03 01:58:28;;;;;;;27.70;12.90;;;-0.90;99.90;;;;;;4973273;28;20206;-62
2022/03/03 02:00:54;;;;;;;34.40;16.67;;;-0.90;99.90;;;;;;4972781;28;20567;-61
2022/03/03 02:03:20;;;;;;;33.23;14.50;;;-0.90;99.90;;;;;;4973113;28;20641;-61
2022/03/03 02:05:46;;;;;;;33.87;15.63;;;-0.90;99.90;;;;;;4972391;28;20228;-64
2022/03/03 02:08:13;;;;;;;32.67;14.50;;;-0.90;99.90;;;;;;4973264;28;20220;-60
2022/03/03 02:10:39;;;;;;;34.57;15.43;;;-0.90;99.90;;;;;;4973416;28;20180;-61
2022/03/03 02:13:06;;;;;;;32.67;13.83;;;-0.90;99.90;;;;;;4972899;28;20199;-61
2022/03/03 02:15:31;;;;;;;33.67;16.33;;;-0.90;99.90;;;;;;4973009;28;20212;-59
2022/03/03 02:17:57;;;;;;;26.70;13.27;;;-0.90;99.90;;;;;;4981569;28;20188;-62
2022/03/03 02:20:28;;;;;;;34.10;15.87;;;-0.90;99.90;;;;;;4992232;28;20188;-64
2022/03/03 02:22:56;;;;;;;30.90;16.30;;;-0.90;99.90;;;;;;4992532;28;20186;-62
2022/03/03 02:25:23;;;;;;;33.17;16.70;;;-0.90;99.90;;;;;;4992489;28;20190;-62
2022/03/03 02:27:49;;;;;;;35.63;16.20;;;-0.90;99.90;;;;;;4992202;28;20250;-63
2022/03/03 02:30:17;;;;;;;30.17;15.40;;;-0.90;99.90;;;;;;4992406;28;20208;-62
2022/03/03 02:32:44;;;;;;;28.27;14.47;;;-1.00;99.90;;;;;;4991959;28;20188;-65
2022/03/03 02:35:10;;;;;;;33.80;15.40;;;-0.90;99.90;;;;;;4990695;28;20625;-62
2022/03/03 02:37:39;;;;;;;35.33;16.10;;;-0.90;99.90;;;;;;4992030;28;20184;-61
2022/03/03 02:40:08;;;;;;;29.43;15.00;;;-0.90;99.90;;;;;;4991798;28;20183;-61
2022/03/03 02:42:34;;;;;;;30.73;14.30;;;-0.90;99.90;;;;;;4991766;28;20184;-61
2022/03/03 02:45:01;;;;;;;26.90;13.13;;;-0.90;99.90;;;;;;4995730;28;20218;-62
2022/03/03 02:47:27;;;;;;;31.33;19.03;;;-1.00;99.90;;;;;;4995830;28;20207;-61
2022/03/03 02:49:53;;;;;;;26.60;12.80;;;-1.00;99.90;;;;;;4995818;28;20636;-61
2022/03/03 02:52:19;;;;;;;28.50;14.10;;;-1.00;99.90;;;;;;4996347;28;20226;-61
2022/03/03 02:54:45;;;;;;;29.70;13.57;;;-1.00;99.90;;;;;;4995934;28;20668;-63
2022/03/03 02:59:55;;;;;;;32.77;13.67;;;-0.90;99.90;;;;;;4994836;28;20205;-63
2022/03/03 03:02:20;;;;;;;31.33;14.53;;;-1.00;99.90;;;;;;4996154;28;20181;-62
2022/03/03 03:04:46;;;;;;;26.50;13.73;;;-0.90;99.90;;;;;;4994336;28;20231;-60
2022/03/03 03:07:12;;;;;;;32.30;15.23;;;-0.90;99.90;;;;;;4995106;28;20293;-61
2022/03/03 03:09:37;;;;;;;25.13;11.97;;;-1.00;99.90;;;;;;4995736;28;20541;-61
2022/03/03 03:12:03;;;;;;;27.37;14.47;;;-0.90;99.90;;;;;;4995026;28;20545;-61
2022/03/03 03:14:29;;;;;;;31.30;14.83;;;-1.00;99.90;;;;;;4995393;28;20204;-61
2022/03/03 03:16:55;;;;;;;30.53;14.50;;;-1.00;99.90;;;;;;4994012;28;20648;-62
2022/03/03 03:19:21;;;;;;;27.17;14.67;;;-1.00;99.90;;;;;;4975896;28;20187;-61
2022/03/03 03:21:47;;;;;;;28.63;15.17;;;-1.00;99.90;;;;;;4975906;28;20184;-62
2022/03/03 03:24:12;;;;;;;32.27;15.93;;;-0.90;99.90;;;;;;4975676;28;20278;-61
2022/03/03 03:26:39;;;;;;;28.90;15.50;;;-1.00;99.90;;;;;;4975907;28;20259;-60
2022/03/03 03:29:05;;;;;;;27.67;13.57;;;-1.00;99.90;;;;;;4975497;28;20181;-60
2022/03/03 03:31:31;;;;;;;17.17;8.23;;;-1.00;99.90;;;;;;4975731;28;20196;-61
2022/03/03 03:33:56;;;;;;;32.27;14.70;;;-1.00;99.90;;;;;;4975324;28;20187;-62
2022/03/03 03:36:22;;;;;;;31.60;16.00;;;-1.00;99.90;;;;;;4975525;28;20691;-61
2022/03/03 03:38:48;;;;;;;30.70;16.53;;;-1.00;99.90;;;;;;4975410;28;20181;-61
2022/03/03 03:41:13;;;;;;;28.87;15.03;;;-1.00;99.90;;;;;;4975051;28;20272;-61
2022/03/03 03:43:39;;;;;;;27.33;12.20;;;-1.00;99.90;;;;;;4974034;28;20193;-61
2022/03/03 03:46:05;;;;;;;19.57;9.67;;;-1.10;99.90;;;;;;4975275;28;20246;-61
2022/03/03 03:48:31;;;;;;;32.50;16.47;;;-1.10;99.90;;;;;;4975660;28;20185;-60
2022/03/03 03:50:57;;;;;;;30.43;14.47;;;-1.10;99.90;;;;;;4974963;28;20541;-61
2022/03/03 03:53:23;;;;;;;26.20;12.77;;;-1.20;99.90;;;;;;4975260;28;20215;-62
2022/03/03 03:55:50;;;;;;;33.33;11.97;;;-1.10;99.90;;;;;;4973767;28;20244;-61
2022/03/03 03:58:16;;;;;;;30.60;14.77;;;-1.20;99.90;;;;;;4989949;28;20189;-65
2022/03/03 04:00:42;;;;;;;27.93;14.77;;;-1.20;99.90;;;;;;4975213;28;20663;-63
2022/03/03 04:03:08;;;;;;;29.37;13.87;;;-1.20;99.90;;;;;;4974725;28;20266;-62
2022/03/03 04:05:35;;;;;;;23.73;11.27;;;-1.20;99.90;;;;;;4973530;28;20187;-61
2022/03/03 04:08:01;;;;;;;31.47;14.77;;;-1.20;99.90;;;;;;4974697;28;20323;-61
2022/03/03 04:10:29;;;;;;;31.70;14.40;;;-1.30;99.90;;;;;;4974701;28;20212;-61
2022/03/03 04:12:55;;;;;;;32.43;14.53;;;-1.30;99.90;;;;;;4974335;28;20184;-60
2022/03/03 04:15:21;;;;;;;26.90;12.33;;;-1.30;99.90;;;;;;4975119;28;20220;-61
2022/03/03 04:17:48;;;;;;;27.37;12.43;;;-1.30;99.90;;;;;;4982656;28;20694;-63
2022/03/03 04:20:14;;;;;;;29.43;14.23;;;-1.40;99.90;;;;;;4993691;28;20203;-61
2022/03/03 04:22:41;;;;;;;28.83;13.30;;;-1.40;99.90;;;;;;4992711;28;20191;-61
2022/03/03 04:25:10;;;;;;;22.20;9.83;;;-1.40;99.90;;;;;;4993824;28;20219;-61
2022/03/03 04:27:37;;;;;;;29.63;14.50;;;-1.50;99.90;;;;;;4993903;28;20249;-61
2022/03/03 04:30:05;;;;;;;29.87;10.00;;;-1.50;99.90;;;;;;4993541;28;20207;-61
2022/03/03 04:32:31;;;;;;;31.03;14.10;;;-1.40;99.90;;;;;;4992561;28;20208;-61
2022/03/03 04:34:57;;;;;;;29.33;12.90;;;-1.40;99.90;;;;;;4993152;28;20213;-61
2022/03/03 04:37:23;;;;;;;25.70;11.73;;;-1.50;99.90;;;;;;4993638;28;20206;-60
2022/03/03 04:39:49;;;;;;;29.43;13.83;;;-1.40;99.90;;;;;;4992388;28;20254;-63
2022/03/03 04:42:14;;;;;;;25.87;12.70;;;-1.40;99.90;;;;;;4991920;28;20206;-62
2022/03/03 04:44:40;;;;;;;30.20;14.27;;;-1.40;99.90;;;;;;4993675;28;20239;-62
2022/03/03 04:47:06;;;;;;;31.27;14.30;;;-1.50;99.90;;;;;;4992123;28;20193;-61
2022/03/03 04:49:32;;;;;;;29.87;13.67;;;-1.50;99.90;;;;;;4993595;28;20187;-62
2022/03/03 04:51:57;;;;;;;32.27;15.87;;;-1.50;99.90;;;;;;4992602;28;20274;-61
2022/03/03 04:54:23;;;;;;;31.33;15.83;;;-1.50;99.90;;;;;;4993277;28;20233;-63
2022/03/03 04:56:51;;;;;;;35.70;16.20;;;-1.50;99.90;;;;;;4993244;28;20205;-62
2022/03/03 04:59:17;;;;;;;37.97;18.27;;;-1.50;99.90;;;;;;5008072;28;20180;-61
2022/03/03 05:01:43;;;;;;;31.33;14.80;;;-1.50;99.90;;;;;;4993611;28;20266;-62
2022/03/03 05:04:08;;;;;;;37.07;15.67;;;-1.40;99.90;;;;;;4991812;28;20191;-61
2022/03/03 05:06:34;;;;;;;33.93;15.27;;;-1.50;99.90;;;;;;4992473;28;20333;-63
2022/03/03 05:09:00;;;;;;;35.03;16.47;;;-1.50;99.90;;;;;;4992496;28;20558;-62
2022/03/03 05:11:26;;;;;;;34.00;16.73;;;-1.50;99.90;;;;;;4991210;28;20282;-60
2022/03/03 05:13:52;;;;;;;36.93;16.10;;;-1.50;99.90;;;;;;4993030;28;20278;-61
2022/03/03 05:16:18;;;;;;;33.57;15.77;;;-1.50;99.90;;;;;;4992676;28;20243;-62
2022/03/03 05:18:43;;;;;;;36.87;16.03;;;-1.40;99.90;;;;;;4976649;28;20196;-63
2022/03/03 05:21:09;;;;;;;32.87;16.43;;;-1.40;99.90;;;;;;4971284;28;20184;-61
2022/03/03 05:23:35;;;;;;;33.67;17.43;;;-1.40;99.90;;;;;;4973252;28;20195;-63
2022/03/03 05:26:01;;;;;;;38.57;15.00;;;-1.40;99.90;;;;;;4971570;28;20188;-62
2022/03/03 05:28:26;;;;;;;41.70;18.50;;;-1.30;99.90;;;;;;4972001;28;20184;-61
2022/03/03 05:30:52;;;;;;;33.30;17.07;;;-1.30;99.90;;;;;;4971572;28;20195;-62
2022/03/03 05:33:18;;;;;;;30.33;14.07;;;-1.30;99.90;;;;;;4972512;28;20184;-62
2022/03/03 05:35:47;;;;;;;29.93;15.43;;;-1.30;99.90;;;;;;4970967;28;20283;-62
2022/03/03 05:38:13;;;;;;;36.10;17.90;;;-1.30;99.90;;;;;;4971021;28;20199;-62
2022/03/03 05:40:38;;;;;;;40.80;18.07;;;-1.20;99.90;;;;;;4972947;28;20209;-63
2022/03/03 05:43:04;;;;;;;39.10;18.80;;;-1.20;99.90;;;;;;4972535;28;20275;-62
2022/03/03 05:45:34;;;;;;;28.87;13.97;;;-1.20;99.90;;;;;;4973021;28;20199;-61
2022/03/03 05:48:01;;;;;;;39.17;16.63;;;-1.20;99.90;;;;;;4972088;28;20181;-61
2022/03/03 05:50:27;;;;;;;32.87;16.60;;;-1.20;99.90;;;;;;4972209;28;20262;-62
2022/03/03 05:52:54;;;;;;;36.13;18.17;;;-1.20;99.90;;;;;;4971999;28;20232;-61
2022/03/03 05:55:20;;;;;;;36.17;16.90;;;-1.10;99.90;;;;;;4972418;28;20251;-61
2022/03/03 05:57:49;;;;;;;39.30;17.73;;;-1.10;99.90;;;;;;4972103;28;20216;-61
2022/03/03 06:00:17;;;;;;;37.27;17.53;;;-1.10;99.90;;;;;;4971646;28;20243;-61
2022/03/03 06:02:51;;;;;;;35.83;16.80;;;-1.00;99.90;;;;;;4972469;28;20282;-62
2022/03/03 06:05:28;;;;;;;38.80;18.00;;;-0.90;99.90;;;;;;4969978;28;20308;-63
2022/03/03 06:08:02;;;;;;;31.43;14.30;;;-0.90;99.90;;;;;;4972204;28;20237;-60
2022/03/03 06:10:32;;;;;;;33.77;16.13;;;-0.80;99.90;;;;;;4972293;28;20180;-61
2022/03/03 06:13:23;;;;;;;37.80;19.23;;;-0.80;99.90;;;;;;4971334;28;20196;-66
2022/03/03 06:15:49;;;;;;;35.87;16.60;;;-0.90;99.90;;;;;;4972138;28;20236;-61
2022/03/03 06:18:16;;;;;;;33.10;17.70;;;-0.90;99.90;;;;;;4981732;28;20208;-62
2022/03/03 06:20:44;;;;;;;34.97;16.50;;;-0.90;99.90;;;;;;4982947;28;20674;-60
2022/03/03 06:23:09;;;;;;;25.90;12.70;;;-0.90;99.90;;;;;;4988404;28;20188;-64
2022/03/03 06:25:37;;;;;;;29.13;13.80;;;-0.80;99.90;;;;;;4989992;28;20706;-65
2022/03/03 06:28:03;;;;;;;34.33;16.00;;;-0.80;99.90;;;;;;4985625;28;20196;-66
2022/03/03 06:30:31;;;;;;;35.30;16.63;;;-0.80;99.90;;;;;;4989878;28;20511;-65
2022/03/03 06:32:56;;;;;;;37.60;17.30;;;-0.70;99.90;;;;;;4992223;28;20199;-65
2022/03/03 06:35:22;;;;;;;35.50;16.80;;;-0.60;99.90;;;;;;4990542;28;20682;-66
2022/03/03 06:37:48;;;;;;;36.23;16.80;;;-0.60;99.90;;;;;;5001302;28;20199;-62
2022/03/03 06:40:14;;;;;;;38.73;18.23;;;-0.60;99.90;;;;;;4994399;28;20473;-64
2022/03/03 06:42:39;;;;;;;29.20;14.03;;;-0.60;99.90;;;;;;4985228;28;20220;-63
2022/03/03 06:45:06;;;;;;;33.77;16.80;;;-0.60;99.90;;;;;;4993020;28;20699;-64
2022/03/03 06:47:31;;;;;;;34.77;18.77;;;-0.50;99.90;;;;;;4988818;28;20198;-66
2022/03/03 06:49:57;;;;;;;29.47;14.27;;;-0.50;99.90;;;;;;4990774;28;20700;-65
2022/03/03 06:52:30;;;;;;;29.20;15.87;;;-0.50;99.90;;;;;;4977980;28;20195;-64
2022/03/03 06:55:00;;;;;;;40.87;18.60;;;-0.50;99.90;;;;;;4989385;28;20208;-65
2022/03/03 06:57:29;;;;;;;30.83;15.53;;;-0.30;99.90;;;;;;4981501;28;20189;-65
2022/03/03 07:00:01;;;;;;;32.77;17.03;;;-0.10;99.90;;;;;;4989523;28;20275;-67
2022/03/03 07:02:27;;;;;;;30.97;13.77;;;0.00;99.90;;;;;;4982208;28;20197;-61
2022/03/03 07:04:53;;;;;;;32.67;16.53;;;0.00;99.90;;;;;;4984262;28;20188;-61
2022/03/03 07:07:20;;;;;;;36.67;16.97;;;0.00;99.90;;;;;;4958080;28;20332;-60
2022/03/03 07:09:47;;;;;;;19.00;10.53;;;0.20;99.90;;;;;;5024979;28;20655;-62
2022/03/03 07:12:16;;;;;;;30.17;14.47;;;0.20;99.90;;;;;;4982609;28;20218;-60
2022/03/03 07:14:41;;;;;;;31.10;15.17;;;0.00;99.90;;;;;;5010505;28;20222;-65
2022/03/03 07:17:20;;;;;;;30.27;14.00;;;0.10;99.90;;;;;;4982994;28;20547;-65
2022/03/03 07:20:05;;;;;;;28.10;13.77;;;0.10;99.90;;;;;;4986006;28;20181;-62
2022/03/03 07:22:38;;;;;;;32.20;15.73;;;0.20;99.90;;;;;;4979102;28;20184;-62
2022/03/03 07:25:11;;;;;;;22.60;10.77;;;0.20;99.90;;;;;;5009636;28;20203;-61
2022/03/03 07:27:43;;;;;;;33.07;16.03;;;0.20;99.90;;;;;;4978005;28;20543;-63
2022/03/03 07:30:15;;;;;;;29.07;14.23;;;0.30;99.90;;;;;;4992552;28;20200;-62
2022/03/03 07:33:06;;;;;;;32.50;15.97;;;0.40;99.90;;;;;;4985858;28;20187;-65
2022/03/03 07:35:34;;;;;;;24.77;12.80;;;0.40;99.90;;;;;;4997716;28;20248;-59
2022/03/03 07:38:07;;;;;;;33.00;15.77;;;0.40;99.90;;;;;;5015027;28;20188;-68
2022/03/03 07:40:33;;;;;;;19.80;11.33;;;0.40;99.90;;;;;;4995656;28;20214;-59
2022/03/03 07:43:00;;;;;;;24.30;11.70;;;0.40;99.90;;;;;;4988831;28;20258;-61
2022/03/03 07:45:27;;;;;;;32.47;14.97;;;0.40;99.90;;;;;;4996545;28;20686;-62
2022/03/03 07:47:57;;;;;;;27.47;13.27;;;0.30;99.90;;;;;;4997558;28;20226;-62
2022/03/03 07:50:24;;;;;;;28.67;14.13;;;0.30;99.90;;;;;;5026745;28;20233;-63
2022/03/03 07:52:51;;;;;;;25.63;12.67;;;0.40;99.90;;;;;;4993728;28;20184;-64
2022/03/03 07:55:16;;;;;;;32.37;15.50;;;0.40;99.90;;;;;;4993485;28;20271;-61
2022/03/03 07:58:00;;;;;;;29.57;13.53;;;0.60;99.90;;;;;;4976354;28;20196;-63
2022/03/03 08:00:29;;;;;;;31.97;15.83;;;0.50;99.90;;;;;;4993485;28;20172;-65
2022/03/03 08:02:59;;;;;;;32.33;14.53;;;0.50;99.90;;;;;;4993950;28;20180;-65
2022/03/03 08:05:29;;;;;;;29.83;15.27;;;0.60;99.90;;;;;;4993487;28;20190;-65
2022/03/03 08:07:56;;;;;;;26.33;14.07;;;0.70;99.90;;;;;;4983260;28;20181;-64
2022/03/03 08:10:25;;;;;;;31.57;15.23;;;0.70;99.90;;;;;;4981787;28;20242;-69
2022/03/03 08:12:54;;;;;;;27.03;13.17;;;0.60;99.90;;;;;;4993049;28;20180;-65
2022/03/03 08:15:21;;;;;;;31.57;15.20;;;0.60;99.90;;;;;;4971871;28;20223;-62
2022/03/03 08:17:51;;;;;;;35.97;17.67;;;0.60;99.90;;;;;;4979236;28;20576;-66
2022/03/03 08:20:18;;;;;;;30.53;13.30;;;0.60;99.90;;;;;;4983454;28;20244;-64
2022/03/03 08:22:44;;;;;;;32.87;14.77;;;0.50;99.90;;;;;;4972391;28;20182;-61
2022/03/03 08:25:12;;;;;;;36.30;20.67;;;0.50;99.90;;;;;;4972120;28;20181;-60
2022/03/03 08:27:39;;;;;;;32.47;16.77;;;0.40;99.90;;;;;;4974254;28;20643;-63
2022/03/03 08:30:07;;;;;;;32.57;17.27;;;0.50;99.90;;;;;;4973418;28;20223;-61
2022/03/03 08:32:37;;;;;;;33.83;17.10;;;0.50;99.90;;;;;;4973918;28;20193;-60
2022/03/03 08:35:11;;;;;;;30.97;15.73;;;0.60;99.90;;;;;;4972329;28;20217;-69
2022/03/03 08:37:39;;;;;;;40.60;19.47;;;0.70;99.90;;;;;;4980957;28;20263;-61
2022/03/03 08:40:11;;;;;;;37.47;18.27;;;0.80;99.90;;;;;;4983992;28;20179;-61
2022/03/03 08:42:41;;;;;;;27.80;14.13;;;0.90;99.90;;;;;;4989806;28;20269;-62
2022/03/03 08:45:10;;;;;;;37.73;17.83;;;0.90;99.90;;;;;;4992544;28;20185;-63
2022/03/03 08:47:37;;;;;;;36.53;19.90;;;1.00;99.90;;;;;;4976803;28;20543;-64
2022/03/03 08:50:08;;;;;;;39.47;18.57;;;1.20;99.90;;;;;;4973084;28;20649;-77
2022/03/03 08:52:43;;;;;;;26.27;14.07;;;1.10;99.90;;;;;;4973618;28;20329;-63
2022/03/03 08:55:12;;;;;;;28.47;15.83;;;1.00;99.90;;;;;;4973314;28;20237;-62
2022/03/03 08:57:38;;;;;;;41.33;19.97;;;0.90;99.90;;;;;;4973471;28;20192;-68
2022/03/03 09:00:08;;;;;;;38.97;20.53;;;1.10;99.90;;;;;;4977737;28;20215;-65
2022/03/03 09:02:34;;;;;;;34.93;17.23;;;1.20;99.90;;;;;;4971490;28;20193;-63
2022/03/03 09:05:00;;;;;;;38.97;22.30;;;1.10;99.90;;;;;;4972764;28;20484;-63
2022/03/03 09:07:26;;;;;;;34.57;18.33;;;1.10;99.90;;;;;;4973037;28;20603;-65
2022/03/03 09:09:51;;;;;;;36.97;16.77;;;1.30;99.90;;;;;;4973283;28;20274;-63
2022/03/03 09:12:17;;;;;;;34.10;18.53;;;1.40;99.90;;;;;;4972309;28;20267;-63
2022/03/03 09:14:43;;;;;;;34.43;17.40;;;1.50;99.90;;;;;;4973599;28;20238;-64
2022/03/03 09:17:09;;;;;;;43.17;19.93;;;1.50;99.90;;;;;;4975227;28;20295;-63
2022/03/03 09:19:36;;;;;;;35.30;18.77;;;1.40;99.90;;;;;;4992599;28;20565;-64
2022/03/03 09:22:03;;;;;;;33.90;18.23;;;1.40;99.90;;;;;;4990849;28;20201;-66
2022/03/03 09:24:29;;;;;;;39.30;20.13;;;1.30;99.90;;;;;;4992704;28;20639;-71
2022/03/03 09:26:55;;;;;;;36.77;18.13;;;1.40;99.90;;;;;;4992408;28;20710;-66
2022/03/03 09:29:22;;;;;;;38.70;19.13;;;1.40;99.90;;;;;;4991275;28;20217;-66
2022/03/03 09:31:47;;;;;;;37.93;19.87;;;1.30;99.90;;;;;;4990194;28;20188;-66
2022/03/03 09:34:14;;;;;;;30.83;17.27;;;1.50;99.90;;;;;;4991681;28;20183;-66
2022/03/03 09:36:40;;;;;;;39.30;19.27;;;1.40;99.90;;;;;;4992176;28;20220;-66
2022/03/03 09:39:05;;;;;;;38.20;16.97;;;1.40;99.90;;;;;;4991383;28;20519;-68
2022/03/03 09:41:31;;;;;;;28.27;14.23;;;1.40;99.90;;;;;;4991447;28;20243;-65
2022/03/03 09:43:58;;;;;;;42.70;18.93;;;1.30;99.90;;;;;;4989533;28;20181;-62
2022/03/03 09:46:24;;;;;;;34.97;19.37;;;1.30;99.90;;;;;;4983650;28;20840;-61
2022/03/03 09:48:50;;;;;;;41.27;19.63;;;1.30;99.90;;;;;;4972317;28;20197;-61
2022/03/03 09:51:16;;;;;;;40.83;20.17;;;1.30;99.90;;;;;;4971857;28;20252;-64
2022/03/03 09:53:42;;;;;;;37.67;21.63;;;1.30;99.90;;;;;;4970670;28;20186;-65
2022/03/03 09:56:09;;;;;;;38.50;18.10;;;1.20;99.90;;;;;;4972029;28;20566;-62
2022/03/03 09:58:35;;;;;;;40.13;19.87;;;1.20;99.90;;;;;;4971434;28;20250;-63
2022/03/03 10:01:01;;;;;;;39.53;18.20;;;1.50;99.90;;;;;;4972696;28;20204;-66
2022/03/03 10:03:34;;;;;;;37.43;20.20;;;1.50;99.90;;;;;;4971770;28;20203;-62
2022/03/03 10:06:01;;;;;;;35.07;17.13;;;1.60;99.90;;;;;;4972249;28;20238;-62
2022/03/03 10:08:28;;;;;;;49.03;22.87;;;1.60;99.90;;;;;;4970632;28;20190;-61
2022/03/03 10:10:57;;;;;;;40.13;19.37;;;1.60;99.90;;;;;;4971849;28;20534;-63
2022/03/03 10:13:23;;;;;;;26.40;13.07;;;1.40;99.90;;;;;;4971001;28;20232;-58
2022/03/03 10:15:54;;;;;;;39.47;18.57;;;1.40;99.90;;;;;;4972225;28;20218;-63
2022/03/03 10:18:21;;;;;;;39.50;17.50;;;1.40;99.90;;;;;;4982541;28;20185;-63
2022/03/03 10:20:52;;;;;;;38.27;19.47;;;1.50;99.90;;;;;;4990086;28;20194;-64
2022/03/03 10:23:23;;;;;;;31.50;16.53;;;1.40;99.90;;;;;;4991091;28;20189;-63
2022/03/03 10:25:51;;;;;;;35.87;17.30;;;1.40;99.90;;;;;;4991394;28;20194;-64
2022/03/03 10:28:23;;;;;;;35.67;18.07;;;1.40;99.90;;;;;;4990491;28;20182;-63
2022/03/03 10:30:50;;;;;;;35.90;19.00;;;1.40;99.90;;;;;;4990604;28;20187;-64
2022/03/03 10:33:18;;;;;;;32.70;16.77;;;1.40;99.90;;;;;;4989102;28;20199;-63
2022/03/03 10:36:05;;;;;;;37.80;17.47;;;1.40;99.90;;;;;;4991034;28;20208;-62
2022/03/03 10:38:33;;;;;;;32.33;15.83;;;1.40;99.90;;;;;;4990589;28;20187;-63
2022/03/03 10:40:58;;;;;;;40.00;17.07;;;1.50;99.90;;;;;;4989687;28;20190;-62
2022/03/03 10:43:24;;;;;;;33.87;18.17;;;1.30;99.90;;;;;;4985502;28;20199;-66
2022/03/03 10:46:01;;;;;;;32.33;14.17;;;1.30;99.90;;;;;;4971657;28;20325;-64
2022/03/03 10:48:28;;;;;;;35.27;17.50;;;1.20;99.90;;;;;;4990014;28;20292;-65
2022/03/03 10:50:55;;;;;;;33.33;16.00;;;1.30;99.90;;;;;;4991321;28;20210;-62
2022/03/03 10:53:23;;;;;;;31.97;16.60;;;1.40;99.90;;;;;;4990024;28;20647;-67
2022/03/03 10:56:08;;;;;;;37.40;17.93;;;1.50;99.90;;;;;;4990660;28;20214;-60
2022/03/03 10:59:00;;;;;;;32.83;17.23;;;1.50;99.90;;;;;;4989835;28;20229;-63
2022/03/03 11:01:28;;;;;;;32.97;17.77;;;1.40;99.90;;;;;;4987714;28;20930;-61
2022/03/03 11:03:55;;;;;;;36.27;18.17;;;1.40;99.90;;;;;;4990142;28;20255;-62
2022/03/03 11:06:22;;;;;;;30.40;16.07;;;1.40;99.90;;;;;;4993412;28;20253;-60
2022/03/03 11:08:49;;;;;;;31.20;15.77;;;1.60;99.90;;;;;;4993364;28;20182;-63
2022/03/03 11:11:15;;;;;;;36.63;19.40;;;1.50;99.90;;;;;;4986328;28;20236;-64
2022/03/03 11:13:44;;;;;;;27.10;13.73;;;1.60;99.90;;;;;;4993499;28;20606;-64
2022/03/03 11:16:10;;;;;;;28.50;14.23;;;1.50;99.90;;;;;;4985604;28;20213;-65
2022/03/03 11:18:36;;;;;;;32.90;17.60;;;1.50;99.90;;;;;;4983546;28;20247;-63
2022/03/03 11:21:03;;;;;;;29.13;14.90;;;1.50;99.90;;;;;;4982523;28;20658;-62
2022/03/03 11:23:40;;;;;;;30.30;18.33;;;1.50;99.90;;;;;;4986552;28;20279;-63
2022/03/03 11:26:08;;;;;;;30.23;16.67;;;1.40;99.90;;;;;;4991827;28;20193;-62
2022/03/03 11:28:35;;;;;;;23.90;11.70;;;1.40;99.90;;;;;;4992200;28;20192;-62
2022/03/03 11:31:31;;;;;;;31.27;15.87;;;1.40;99.90;;;;;;4992120;28;20237;-63
2022/03/03 11:34:19;;;;;;;35.57;16.80;;;1.50;99.90;;;;;;4993509;28;20187;-63
2022/03/03 11:36:45;;;;;;;33.00;15.93;;;1.40;99.90;;;;;;4993270;28;20208;-61
2022/03/03 11:39:34;;;;;;;30.43;15.80;;;1.40;99.90;;;;;;4991817;28;20260;-62
2022/03/03 11:42:26;;;;;;;29.50;16.13;;;1.50;99.90;;;;;;4992958;28;20187;-63
2022/03/03 11:44:55;;;;;;;30.07;16.17;;;1.50;99.90;;;;;;4992900;28;20200;-63
2022/03/03 11:47:36;;;;;;;29.17;15.97;;;1.60;99.90;;;;;;4975731;28;20674;-63
2022/03/03 11:50:09;;;;;;;34.50;16.17;;;1.80;99.90;;;;;;4973835;28;20218;-63
2022/03/03 11:52:35;;;;;;;29.90;15.83;;;1.90;99.90;;;;;;4973345;28;20246;-62
2022/03/03 11:55:31;;;;;;;29.80;15.60;;;1.70;99.90;;;;;;4973032;28;20310;-63
2022/03/03 11:58:08;;;;;;;28.60;16.30;;;1.50;99.90;;;;;;4995118;28;20700;-61
2022/03/03 12:00:59;;;;;;;25.83;14.60;;;1.60;99.90;;;;;;4983526;28;20199;-62
2022/03/03 12:03:26;;;;;;;26.43;14.30;;;1.70;99.90;;;;;;4982973;28;20613;-63
2022/03/03 12:06:08;;;;;;;21.37;11.60;;;1.70;99.90;;;;;;4982419;28;20222;-62
2022/03/03 12:08:38;;;;;;;23.03;11.97;;;1.80;99.90;;;;;;4998579;28;20279;-64
2022/03/03 12:11:10;;;;;;;25.73;12.50;;;1.60;99.90;;;;;;4981476;28;20279;-67
2022/03/03 12:13:38;;;;;;;26.63;13.73;;;1.60;99.90;;;;;;4980233;28;20185;-69
2022/03/03 12:16:15;;;;;;;24.73;13.37;;;1.70;99.90;;;;;;4981243;28;20623;-61
2022/03/03 12:18:42;;;;;;;18.50;9.37;;;1.80;99.90;;;;;;4981716;28;20201;-61
2022/03/03 12:21:31;;;;;;;27.67;13.83;;;1.80;99.90;;;;;;4983101;28;20659;-61
2022/03/03 12:24:17;;;;;;;21.50;11.80;;;1.80;99.90;;;;;;4987887;28;20257;-61
2022/03/03 12:26:55;;;;;;;23.63;12.73;;;1.90;99.90;;;;;;4992634;28;20572;-64
2022/03/03 12:29:48;;;;;;;23.60;13.23;;;1.90;99.90;;;;;;4984420;28;20210;-62
2022/03/03 12:32:29;;;;;;;26.20;13.30;;;2.20;99.90;;;;;;4994744;28;20229;-65
2022/03/03 12:34:57;;;;;;;23.17;12.57;;;2.20;99.90;;;;;;4988075;28;20203;-67
2022/03/03 12:37:24;;;;;;;27.53;12.60;;;2.30;99.90;;;;;;4992789;28;20217;-65
2022/03/03 12:39:54;;;;;;;26.03;15.00;;;2.20;99.90;;;;;;4992505;28;20194;-65